createdAt,value
2018-09-29T00:01:53.313Z,17.30
2018-09-29T00:04:25.854Z,17.40
2018-09-29T00:06:58.053Z,15.70
2018-09-29T00:09:30.781Z,16.20
2018-09-29T00:12:03.094Z,17.00
2018-09-29T00:14:35.334Z,16.90
2018-09-29T00:17:07.914Z,17.73
2018-09-29T00:19:39.553Z,16.00
2018-09-29T00:22:11.413Z,14.63
2018-09-29T00:24:43.915Z,16.03
2018-09-29T00:27:15.673Z,17.13
2018-09-29T00:29:48.114Z,15.53
2018-09-29T00:32:20.174Z,16.10
2018-09-29T00:34:51.973Z,17.27
2018-09-29T00:37:23.681Z,15.97
2018-09-29T00:39:55.659Z,15.70
2018-09-29T00:42:28.094Z,16.23
2018-09-29T00:44:59.973Z,15.97
2018-09-29T00:47:32.594Z,15.67
2018-09-29T00:50:04.333Z,15.77
2018-09-29T00:52:36.713Z,15.37
2018-09-29T00:55:08.774Z,16.40
2018-09-29T00:57:41.013Z,15.93
2018-09-29T01:00:12.954Z,15.27
2018-09-29T01:02:44.777Z,14.33
2018-09-29T01:05:16.513Z,14.47
2018-09-29T01:07:48.253Z,14.10
2018-09-29T01:10:20.373Z,14.37
2018-09-29T01:12:53.174Z,14.73
2018-09-29T01:15:24.635Z,13.60
2018-09-29T01:17:57.613Z,15.13
2018-09-29T01:20:30.314Z,14.57
2018-09-29T01:23:02.233Z,15.57
2018-09-29T01:25:33.222Z,15.93
2018-09-29T01:28:04.982Z,15.60
2018-09-29T01:30:36.862Z,14.80
2018-09-29T01:33:08.841Z,14.87
2018-09-29T01:35:40.822Z,14.80
2018-09-29T01:38:12.642Z,14.90
2018-09-29T01:40:44.581Z,14.40
2018-09-29T01:43:15.762Z,15.20
2018-09-29T01:45:47.622Z,14.20
2018-09-29T01:48:19.122Z,13.97
2018-09-29T01:50:51.581Z,14.13
2018-09-29T01:53:23.221Z,13.03
2018-09-29T01:55:55.362Z,13.20
2018-09-29T01:58:26.562Z,14.67
2018-09-29T02:00:58.542Z,15.10
2018-09-29T02:03:30.222Z,14.87
2018-09-29T02:06:02.265Z,15.00
2018-09-29T02:08:33.901Z,13.77
2018-09-29T02:11:05.262Z,13.63
2018-09-29T02:13:36.841Z,14.20
2018-09-29T02:16:08.722Z,13.83
2018-09-29T02:18:40.781Z,13.80
2018-09-29T02:21:12.761Z,12.60
2018-09-29T02:23:44.641Z,14.70
2018-09-29T02:26:16.361Z,14.03
2018-09-29T02:28:48.727Z,13.83
2018-09-29T02:31:20.801Z,13.00
2018-09-29T02:33:52.663Z,13.80
2018-09-29T02:36:25.082Z,12.93
2018-09-29T02:38:56.962Z,13.40
2018-09-29T02:41:28.482Z,13.67
2018-09-29T02:44:00.561Z,13.33
2018-09-29T02:46:32.242Z,12.20
2018-09-29T02:49:03.941Z,14.23
2018-09-29T02:51:35.982Z,14.20
2018-09-29T02:54:08.061Z,14.10
2018-09-29T02:56:38.422Z,14.30
2018-09-29T02:59:09.704Z,14.93
2018-09-29T03:01:41.463Z,13.00
2018-09-29T03:04:13.381Z,13.37
2018-09-29T03:06:44.901Z,13.53
2018-09-29T03:09:16.101Z,13.50
2018-09-29T03:11:47.901Z,13.47
2018-09-29T03:14:19.922Z,14.77
2018-09-29T03:16:51.622Z,14.23
2018-09-29T03:19:23.593Z,13.93
2018-09-29T03:21:54.922Z,14.00
2018-09-29T03:24:26.582Z,14.43
2018-09-29T03:26:57.743Z,13.70
2018-09-29T03:29:30.142Z,14.10
2018-09-29T03:32:02.069Z,14.53
2018-09-29T03:34:33.921Z,14.13
2018-09-29T03:37:06.522Z,13.40
2018-09-29T03:39:37.962Z,15.30
2018-09-29T03:42:10.002Z,14.87
2018-09-29T03:44:41.481Z,14.23
2018-09-29T03:47:12.962Z,13.87
2018-09-29T03:49:44.481Z,14.60
2018-09-29T03:52:16.802Z,14.80
2018-09-29T03:54:48.343Z,12.93
2018-09-29T03:57:20.523Z,12.70
2018-09-29T03:59:51.982Z,12.10
2018-09-29T04:02:23.722Z,11.90
2018-09-29T04:04:55.501Z,11.30
2018-09-29T04:07:27.382Z,12.20
2018-09-29T04:09:59.205Z,12.30
2018-09-29T04:12:29.921Z,14.53
2018-09-29T04:15:02.281Z,13.53
2018-09-29T04:17:34.641Z,13.87
2018-09-29T04:20:06.003Z,15.50
2018-09-29T04:22:37.821Z,12.40
2018-09-29T04:25:09.481Z,12.07
2018-09-29T04:27:41.681Z,14.13
2018-09-29T04:30:13.021Z,13.10
2018-09-29T04:32:45.381Z,12.53
2018-09-29T04:35:17.621Z,12.80
2018-09-29T04:37:48.983Z,13.60
2018-09-29T04:40:21.502Z,15.33
2018-09-29T04:42:52.921Z,14.00
2018-09-29T04:45:24.865Z,14.67
2018-09-29T04:47:56.521Z,16.80
2018-09-29T04:50:28.121Z,15.03
2018-09-29T04:52:59.644Z,15.60
2018-09-29T04:55:31.561Z,15.00
2018-09-29T04:58:03.462Z,15.03
2018-09-29T05:00:35.461Z,14.13
2018-09-29T05:03:07.421Z,14.30
2018-09-29T05:05:39.641Z,14.00
2018-09-29T05:08:11.001Z,12.83
2018-09-29T05:10:42.661Z,13.57
2018-09-29T05:13:13.861Z,19.17
2018-09-29T05:15:45.021Z,13.07
2018-09-29T05:18:17.681Z,13.27
2018-09-29T05:20:50.181Z,14.05
2018-09-29T05:23:22.038Z,11.70
2018-09-29T05:25:53.641Z,12.63
2018-09-29T05:28:25.962Z,12.80
2018-09-29T05:30:58.073Z,13.00
2018-09-29T05:33:31.422Z,13.03
2018-09-29T05:36:03.181Z,10.48
2018-09-29T05:38:36.537Z,12.55
2018-09-29T05:41:08.281Z,12.70
2018-09-29T05:43:40.003Z,11.77
2018-09-29T05:46:12.122Z,20.03
2018-09-29T05:48:43.403Z,13.20
2018-09-29T05:51:14.982Z,13.43
2018-09-29T05:53:46.936Z,13.53
2018-09-29T05:56:18.842Z,14.13
2018-09-29T05:58:51.002Z,12.43
2018-09-29T06:01:22.562Z,13.77
2018-09-29T06:03:53.663Z,14.03
2018-09-29T06:06:25.823Z,20.10
2018-09-29T06:08:57.202Z,12.88
2018-09-29T06:11:28.422Z,12.93
2018-09-29T06:14:00.363Z,13.47
2018-09-29T06:16:32.543Z,14.47
2018-09-29T06:19:03.803Z,15.37
2018-09-29T06:21:35.662Z,15.03
2018-09-29T06:24:07.546Z,15.40
2018-09-29T06:26:39.802Z,15.32
2018-09-29T06:29:11.333Z,14.90
2018-09-29T06:31:43.372Z,14.80
2018-09-29T06:34:15.275Z,12.37
2018-09-29T06:36:46.822Z,15.53
2018-09-29T06:39:18.265Z,12.80
2018-09-29T06:41:49.902Z,14.17
2018-09-29T06:44:21.382Z,14.10
2018-09-29T06:46:53.843Z,14.57
2018-09-29T06:49:25.002Z,13.80
2018-09-29T06:51:56.602Z,14.30
2018-09-29T06:54:28.222Z,14.50
2018-09-29T06:56:59.823Z,14.80
2018-09-29T06:59:32.002Z,16.20
2018-09-29T07:02:03.043Z,13.23
2018-09-29T07:04:35.170Z,12.77
2018-09-29T07:07:06.863Z,12.90
2018-09-29T07:09:39.362Z,15.43
2018-09-29T07:12:10.542Z,15.13
2018-09-29T07:14:41.943Z,15.10
2018-09-29T07:17:13.623Z,19.13
2018-09-29T07:19:45.503Z,15.77
2018-09-29T07:22:17.223Z,13.97
2018-09-29T07:24:49.382Z,14.83
2018-09-29T07:27:20.962Z,16.47
2018-09-29T07:29:51.982Z,14.93
2018-09-29T07:32:23.842Z,16.50
2018-09-29T07:34:55.823Z,11.63
2018-09-29T07:37:28.093Z,15.70
2018-09-29T07:39:59.303Z,16.37
2018-09-29T07:42:32.382Z,16.10
2018-09-29T07:45:03.569Z,15.17
2018-09-29T07:47:36.242Z,15.73
2018-09-29T07:50:08.722Z,14.87
2018-09-29T07:52:40.162Z,13.57
2018-09-29T07:55:11.563Z,16.23
2018-09-29T07:57:43.582Z,16.77
2018-09-29T08:00:15.906Z,17.40
2018-09-29T08:02:48.263Z,16.30
2018-09-29T08:05:20.682Z,16.20
2018-09-29T08:07:52.685Z,18.40
2018-09-29T08:10:24.062Z,16.00
2018-09-29T08:12:57.321Z,16.90
2018-09-29T08:15:28.983Z,16.13
2018-09-29T08:18:00.182Z,17.50
2018-09-29T08:20:32.480Z,17.00
2018-09-29T08:23:04.539Z,17.60
2018-09-29T08:25:36.439Z,17.20
2018-09-29T08:28:08.425Z,15.80
2018-09-29T08:30:39.992Z,16.47
2018-09-29T08:33:10.621Z,17.67
2018-09-29T08:35:42.058Z,16.67
2018-09-29T08:38:13.336Z,16.60
2018-09-29T08:40:45.459Z,18.17
2018-09-29T08:43:16.569Z,15.17
2018-09-29T08:45:48.810Z,14.90
2018-09-29T08:48:20.309Z,16.33
2018-09-29T08:50:52.409Z,16.10
2018-09-29T08:53:23.847Z,19.37
2018-09-29T08:55:54.329Z,15.03
2018-09-29T08:58:25.584Z,14.90
2018-09-29T09:00:56.983Z,15.00
2018-09-29T09:03:28.908Z,14.43
2018-09-29T09:06:00.203Z,15.43
2018-09-29T09:08:32.003Z,14.60
2018-09-29T09:11:03.524Z,14.13
2018-09-29T09:13:34.868Z,14.73
2018-09-29T09:16:06.764Z,13.33
2018-09-29T09:18:39.084Z,15.43
2018-09-29T09:21:10.963Z,14.90
2018-09-29T09:23:43.111Z,14.77
2018-09-29T09:26:15.412Z,15.87
2018-09-29T09:28:47.344Z,16.27
2018-09-29T09:31:19.565Z,15.07
2018-09-29T09:33:51.920Z,15.70
2018-09-29T09:36:24.139Z,14.60
2018-09-29T09:38:55.740Z,15.60
2018-09-29T09:41:27.550Z,14.27
2018-09-29T09:43:58.760Z,14.50
2018-09-29T09:46:30.676Z,14.80
2018-09-29T09:49:02.297Z,14.70
2018-09-29T09:51:34.501Z,15.50
2018-09-29T09:54:06.119Z,14.27
2018-09-29T09:56:38.495Z,14.93
2018-09-29T09:59:11.232Z,14.90
2018-09-29T10:01:48.254Z,14.63
2018-09-29T10:04:19.832Z,14.73
2018-09-29T10:06:51.372Z,13.40
2018-09-29T10:09:22.941Z,14.80
2018-09-29T10:11:55.178Z,15.03
2018-09-29T10:14:26.798Z,15.40
2018-09-29T10:16:58.902Z,13.00
2018-09-29T10:19:30.400Z,14.10
2018-09-29T10:22:02.642Z,14.77
2018-09-29T10:24:34.372Z,15.07
2018-09-29T10:27:06.032Z,14.33
2018-09-29T10:29:37.536Z,14.67
2018-09-29T10:32:10.311Z,13.73
2018-09-29T10:34:41.791Z,15.13
2018-09-29T10:37:13.511Z,13.67
2018-09-29T10:39:45.298Z,15.17
2018-09-29T10:42:18.031Z,14.60
2018-09-29T10:44:49.954Z,14.20
2018-09-29T10:47:21.972Z,14.33
2018-09-29T10:49:53.830Z,15.03
2018-09-29T10:52:25.771Z,13.83
2018-09-29T10:54:59.091Z,14.97
2018-09-29T10:57:31.187Z,14.43
2018-09-29T11:00:03.809Z,14.90
2018-09-29T11:02:35.570Z,14.97
2018-09-29T11:05:07.717Z,15.70
2018-09-29T11:07:39.066Z,13.93
2018-09-29T11:10:10.700Z,14.27
2018-09-29T11:12:43.019Z,14.53
2018-09-29T11:15:15.019Z,14.70
2018-09-29T11:17:46.759Z,14.87
2018-09-29T11:20:18.871Z,14.03
2018-09-29T11:22:50.019Z,14.13
2018-09-29T11:25:21.827Z,14.70
2018-09-29T11:27:53.133Z,13.90
2018-09-29T11:30:24.188Z,16.30
2018-09-29T11:32:55.635Z,13.20
2018-09-29T11:35:27.955Z,15.20
2018-09-29T11:37:59.997Z,14.87
2018-09-29T11:40:31.361Z,15.40
2018-09-29T11:43:03.338Z,14.27
2018-09-29T11:45:34.837Z,14.60
2018-09-29T11:48:06.487Z,16.13
2018-09-29T11:50:38.322Z,13.70
2018-09-29T11:53:10.443Z,14.90
2018-09-29T11:55:41.322Z,14.53
2018-09-29T11:58:13.722Z,15.67
2018-09-29T12:00:45.461Z,14.10
2018-09-29T12:03:17.041Z,21.40
2018-09-29T12:05:50.824Z,15.73
2018-09-29T12:08:22.343Z,14.90
2018-09-29T12:10:54.882Z,17.00
2018-09-29T12:13:26.403Z,16.13
2018-09-29T12:15:58.862Z,15.13
2018-09-29T12:18:31.242Z,14.20
2018-09-29T12:21:03.291Z,14.63
2018-09-29T12:23:35.409Z,14.93
2018-09-29T12:26:07.086Z,14.13
2018-09-29T12:28:40.166Z,14.33
2018-09-29T12:31:12.546Z,14.13
2018-09-29T12:33:44.146Z,13.70
2018-09-29T12:36:16.568Z,16.77
2018-09-29T12:38:54.572Z,14.23
2018-09-29T12:41:27.546Z,13.60
2018-09-29T12:43:59.266Z,13.20
2018-09-29T12:46:30.986Z,14.60
2018-09-29T12:49:02.946Z,10.70
2018-09-29T12:51:35.274Z,13.13
2018-09-29T12:54:07.685Z,13.50
2018-09-29T12:56:39.306Z,13.37
2018-09-29T12:59:10.946Z,11.97
2018-09-29T13:01:42.866Z,13.67
2018-09-29T13:04:14.846Z,12.00
2018-09-29T13:06:47.265Z,14.10
2018-09-29T13:09:19.326Z,14.03
2018-09-29T13:11:50.567Z,14.13
2018-09-29T13:14:22.567Z,13.70
2018-09-29T13:16:54.401Z,14.30
2018-09-29T13:19:26.187Z,13.77
2018-09-29T13:21:57.705Z,12.00
2018-09-29T13:24:29.145Z,15.20
2018-09-29T13:27:01.191Z,13.67
2018-09-29T13:29:33.120Z,15.03
2018-09-29T13:32:05.226Z,14.70
2018-09-29T13:34:37.707Z,14.13
2018-09-29T13:37:09.851Z,12.07
2018-09-29T13:39:42.109Z,14.70
2018-09-29T13:42:14.366Z,14.77
2018-09-29T13:44:45.765Z,15.87
2018-09-29T13:47:17.726Z,14.40
2018-09-29T13:49:50.106Z,14.30
2018-09-29T13:52:22.906Z,13.33
2018-09-29T13:54:55.107Z,16.07
2018-09-29T13:57:27.026Z,14.50
2018-09-29T13:59:58.974Z,13.80
2018-09-29T14:02:30.726Z,13.40
2018-09-29T14:05:03.520Z,14.10
2018-09-29T14:07:36.047Z,13.67
2018-09-29T14:10:07.846Z,12.93
2018-09-29T14:12:40.488Z,12.27
2018-09-29T14:15:12.646Z,13.60
2018-09-29T14:17:45.106Z,13.23
2018-09-29T14:20:17.425Z,13.20
2018-09-29T14:22:50.126Z,13.83
2018-09-29T14:25:21.466Z,13.73
2018-09-29T14:27:53.318Z,24.63
2018-09-29T14:30:24.917Z,13.10
2018-09-29T14:32:56.597Z,14.20
2018-09-29T14:35:29.100Z,13.70
2018-09-29T14:38:01.238Z,13.80
2018-09-29T14:40:32.938Z,12.80
2018-09-29T14:43:06.017Z,13.90
2018-09-29T14:45:38.717Z,14.10
2018-09-29T14:48:10.418Z,13.60
2018-09-29T14:50:42.458Z,13.50
2018-09-29T14:53:14.557Z,14.50
2018-09-29T14:55:46.419Z,12.50
2018-09-29T14:58:18.637Z,14.50
2018-09-29T15:00:50.498Z,14.27
2018-09-29T15:03:23.277Z,13.07
2018-09-29T15:05:55.857Z,13.93
2018-09-29T15:08:27.417Z,13.77
2018-09-29T15:11:00.238Z,13.17
2018-09-29T15:13:33.218Z,13.50
2018-09-29T15:16:05.361Z,14.40
2018-09-29T15:18:38.179Z,13.57
2018-09-29T15:21:10.877Z,14.37
2018-09-29T15:23:42.937Z,14.10
2018-09-29T15:26:15.863Z,14.67
2018-09-29T15:28:48.017Z,15.33
2018-09-29T15:31:19.816Z,15.00
2018-09-29T15:33:52.426Z,14.00
2018-09-29T15:36:25.497Z,13.73
2018-09-29T15:38:57.499Z,14.43
2018-09-29T15:41:29.957Z,13.43
2018-09-29T15:44:01.859Z,14.30
2018-09-29T15:46:34.938Z,13.40
2018-09-29T15:49:07.199Z,13.50
2018-09-29T15:51:39.617Z,13.40
2018-09-29T15:54:11.538Z,14.10
2018-09-29T15:56:43.837Z,14.07
2018-09-29T15:59:16.767Z,13.27
2018-09-29T16:01:48.618Z,13.30
2018-09-29T16:04:20.958Z,13.30
2018-09-29T16:06:52.657Z,12.90
2018-09-29T16:09:24.942Z,12.90
2018-09-29T16:11:57.919Z,13.77
2018-09-29T16:14:29.377Z,14.00
2018-09-29T16:17:02.117Z,13.23
2018-09-29T16:19:34.017Z,13.50
2018-09-29T16:22:06.077Z,12.80
2018-09-29T16:24:38.060Z,13.27
2018-09-29T16:27:09.737Z,13.07
2018-09-29T16:29:42.097Z,13.80
2018-09-29T16:32:14.077Z,14.27
2018-09-29T16:34:46.299Z,13.60
2018-09-29T16:37:18.556Z,12.93
2018-09-29T16:39:50.557Z,11.73
2018-09-29T16:42:22.759Z,12.60
2018-09-29T16:44:54.457Z,11.30
2018-09-29T16:47:27.178Z,11.10
2018-09-29T16:49:59.401Z,10.90
2018-09-29T16:52:31.137Z,11.53
2018-09-29T16:55:04.498Z,12.37
2018-09-29T16:57:36.865Z,11.80
2018-09-29T17:00:08.798Z,12.53
2018-09-29T17:02:41.698Z,12.63
2018-09-29T17:05:13.746Z,12.37
2018-09-29T17:07:46.078Z,10.87
2018-09-29T17:10:17.958Z,10.90
2018-09-29T17:12:49.639Z,10.20
2018-09-29T17:15:21.578Z,11.07
2018-09-29T17:17:53.404Z,11.60
2018-09-29T17:20:25.958Z,11.00
2018-09-29T17:22:58.099Z,12.90
2018-09-29T17:25:31.978Z,11.80
2018-09-29T17:28:03.839Z,12.10
2018-09-29T17:30:35.860Z,13.23
2018-09-29T17:33:07.939Z,12.77
2018-09-29T17:35:40.758Z,12.13
2018-09-29T17:38:12.520Z,12.73
2018-09-29T17:40:44.397Z,12.30
2018-09-29T17:43:16.841Z,11.70
2018-09-29T17:45:48.818Z,14.17
2018-09-29T17:48:21.239Z,11.40
2018-09-29T17:50:52.941Z,10.40
2018-09-29T17:53:25.458Z,12.13
2018-09-29T17:55:57.298Z,12.60
2018-09-29T17:58:29.258Z,12.70
2018-09-29T18:01:01.419Z,13.23
2018-09-29T18:03:33.259Z,11.77
2018-09-29T18:06:04.678Z,12.40
2018-09-29T18:08:36.889Z,10.60
2018-09-29T18:11:09.417Z,11.20
2018-09-29T18:13:40.973Z,12.00
2018-09-29T18:16:12.918Z,11.50
2018-09-29T18:18:45.017Z,11.83
2018-09-29T18:21:16.919Z,11.50
2018-09-29T18:23:49.398Z,11.70
2018-09-29T18:26:20.619Z,13.67
2018-09-29T18:28:52.757Z,12.90
2018-09-29T18:31:24.377Z,12.57
2018-09-29T18:33:56.617Z,11.87
2018-09-29T18:36:28.900Z,12.20
2018-09-29T18:39:01.259Z,11.80
2018-09-29T18:41:32.697Z,12.30
2018-09-29T18:44:05.100Z,12.03
2018-09-29T18:46:36.498Z,12.60
2018-09-29T18:49:08.518Z,11.80
2018-09-29T18:51:40.117Z,12.00
2018-09-29T18:54:11.938Z,13.57
2018-09-29T18:56:44.702Z,12.27
2018-09-29T18:59:16.379Z,13.17
2018-09-29T19:01:49.358Z,13.00
2018-09-29T19:04:21.302Z,11.60
2018-09-29T19:06:53.579Z,11.47
2018-09-29T19:09:25.820Z,10.80
2018-09-29T19:11:57.457Z,10.80
2018-09-29T19:14:29.157Z,11.30
2018-09-29T19:17:01.119Z,10.60
2018-09-29T19:19:32.898Z,11.30
2018-09-29T19:22:04.759Z,11.20
2018-09-29T19:24:36.737Z,12.17
2018-09-29T19:27:08.637Z,11.60
2018-09-29T19:29:40.517Z,11.90
2018-09-29T19:32:12.197Z,12.00
2018-09-29T19:34:44.177Z,11.50
2018-09-29T19:37:15.642Z,11.50
2018-09-29T19:39:47.584Z,11.17
2018-09-29T19:42:19.457Z,10.87
2018-09-29T19:44:51.637Z,10.70
2018-09-29T19:47:22.998Z,11.70
2018-09-29T19:49:55.539Z,11.40
2018-09-29T19:52:28.297Z,12.30
2018-09-29T19:55:00.137Z,11.10
2018-09-29T19:57:33.578Z,12.00
2018-09-29T20:00:05.437Z,10.97
2018-09-29T20:02:36.958Z,12.10
2018-09-29T20:05:09.939Z,12.20
2018-09-29T20:07:41.258Z,12.93
2018-09-29T20:10:13.704Z,15.23
2018-09-29T20:12:44.938Z,11.90
2018-09-29T20:15:16.419Z,13.23
2018-09-29T20:17:48.737Z,13.00
2018-09-29T20:20:21.138Z,13.00
2018-09-29T20:22:53.479Z,12.53
2018-09-29T20:25:25.138Z,12.27
2018-09-29T20:27:57.818Z,13.17
2018-09-29T20:30:29.256Z,13.00
2018-09-29T20:33:02.057Z,12.93
2018-09-29T20:35:34.737Z,12.37
2018-09-29T20:38:06.217Z,12.80
2018-09-29T20:40:38.898Z,13.53
2018-09-29T20:43:10.817Z,12.93
2018-09-29T20:45:42.597Z,12.53
2018-09-29T20:48:14.785Z,12.63
2018-09-29T20:50:46.677Z,13.00
2018-09-29T20:53:19.817Z,12.70
2018-09-29T20:55:52.657Z,14.43
2018-09-29T20:58:24.237Z,13.30
2018-09-29T21:00:56.920Z,12.00
2018-09-29T21:03:28.757Z,17.10
2018-09-29T21:06:00.058Z,11.77
2018-09-29T21:08:31.338Z,10.30
2018-09-29T21:11:03.498Z,11.07
2018-09-29T21:13:34.949Z,10.90
2018-09-29T21:16:07.097Z,10.63
2018-09-29T21:18:38.958Z,10.33
2018-09-29T21:21:11.217Z,10.80
2018-09-29T21:23:43.998Z,9.80
2018-09-29T21:26:15.500Z,9.23
2018-09-29T21:28:48.054Z,9.50
2018-09-29T21:31:19.639Z,10.50
2018-09-29T21:33:51.817Z,15.70
2018-09-29T21:36:23.749Z,20.13
2018-09-29T21:38:56.300Z,9.63
2018-09-29T21:41:28.438Z,9.80
2018-09-29T21:44:00.297Z,9.37
2018-09-29T21:46:31.978Z,8.97
2018-09-29T21:49:04.799Z,9.77
2018-09-29T21:51:36.617Z,11.20
2018-09-29T21:54:08.598Z,11.80
2018-09-29T21:56:40.819Z,10.30
2018-09-29T21:59:13.279Z,9.83
2018-09-29T22:01:45.017Z,10.07
2018-09-29T22:04:17.017Z,9.83
2018-09-29T22:06:48.917Z,11.27
2018-09-29T22:09:22.057Z,9.07
2018-09-29T22:11:54.716Z,10.07
2018-09-29T22:14:26.298Z,10.60
2018-09-29T22:16:58.718Z,10.40
2018-09-29T22:19:31.017Z,10.60
2018-09-29T22:22:02.877Z,10.67
2018-09-29T22:24:34.937Z,11.53
2018-09-29T22:27:06.468Z,10.63
2018-09-29T22:29:38.905Z,10.50
2018-09-29T22:32:10.857Z,11.07
2018-09-29T22:34:43.057Z,10.40
2018-09-29T22:37:15.238Z,10.77
2018-09-29T22:39:47.118Z,12.40
2018-09-29T22:42:18.597Z,11.07
2018-09-29T22:44:50.497Z,11.00
2018-09-29T22:47:22.997Z,10.53
2018-09-29T22:49:55.300Z,10.57
2018-09-29T22:52:26.978Z,12.50
2018-09-29T22:54:59.179Z,12.10
2018-09-29T22:57:30.194Z,10.30
2018-09-29T23:00:02.977Z,10.70
2018-09-29T23:02:34.497Z,12.20
2018-09-29T23:05:07.220Z,10.97
2018-09-29T23:07:39.258Z,11.00
2018-09-29T23:10:10.603Z,10.27
2018-09-29T23:12:42.378Z,10.77
2018-09-29T23:15:14.277Z,12.00
2018-09-29T23:17:46.657Z,11.70
2018-09-29T23:20:18.357Z,11.50
2018-09-29T23:22:50.777Z,10.57
2018-09-29T23:25:22.157Z,10.37
2018-09-29T23:27:54.257Z,10.97
2018-09-29T23:30:26.097Z,11.07
2018-09-29T23:32:58.139Z,10.83
2018-09-29T23:35:30.097Z,10.83
2018-09-29T23:38:02.457Z,10.40
2018-09-29T23:40:35.117Z,10.30
2018-09-29T23:43:06.880Z,9.90
2018-09-29T23:45:39.017Z,11.50
2018-09-29T23:48:11.017Z,9.93
2018-09-29T23:50:42.259Z,10.50
2018-09-29T23:53:14.477Z,10.50
2018-09-29T23:55:45.938Z,9.90
2018-09-29T23:58:17.958Z,9.73
